sensor_id;sensor_type;location;lat;lon;timestamp;P1;durP1;ratioP1;P2;durP2;ratioP2
38779;SDS011;29273;49.962;9.768;2022-12-13T00:01:27;11.27;;;6.72;;
38779;SDS011;29273;49.962;9.768;2022-12-13T00:03:54;9.68;;;6.38;;
38779;SDS011;29273;49.962;9.768;2022-12-13T00:06:23;10.40;;;6.65;;
38779;SDS011;29273;49.962;9.768;2022-12-13T00:08:48;11.70;;;6.80;;
38779;SDS011;29273;49.962;9.768;2022-12-13T00:11:14;12.30;;;6.70;;
38779;SDS011;29273;49.962;9.768;2022-12-13T00:13:40;10.95;;;6.47;;
38779;SDS011;29273;49.962;9.768;2022-12-13T00:16:07;12.17;;;7.27;;
38779;SDS011;29273;49.962;9.768;2022-12-13T00:18:36;12.90;;;7.55;;
38779;SDS011;29273;49.962;9.768;2022-12-13T00:21:05;11.73;;;6.70;;
38779;SDS011;29273;49.962;9.768;2022-12-13T00:23:32;13.93;;;7.50;;
38779;SDS011;29273;49.962;9.768;2022-12-13T00:26:01;11.75;;;6.82;;
38779;SDS011;29273;49.962;9.768;2022-12-13T00:28:31;11.68;;;7.28;;
38779;SDS011;29273;49.962;9.768;2022-12-13T00:30:57;10.48;;;6.97;;
38779;SDS011;29273;49.962;9.768;2022-12-13T00:33:24;10.05;;;6.15;;
38779;SDS011;29273;49.962;9.768;2022-12-13T00:35:49;12.30;;;6.85;;
38779;SDS011;29273;49.962;9.768;2022-12-13T00:38:15;13.37;;;7.43;;
38779;SDS011;29273;49.962;9.768;2022-12-13T00:40:41;12.30;;;6.93;;
38779;SDS011;29273;49.962;9.768;2022-12-13T00:43:06;12.07;;;7.30;;
38779;SDS011;29273;49.962;9.768;2022-12-13T00:45:32;12.33;;;7.53;;
38779;SDS011;29273;49.962;9.768;2022-12-13T00:47:58;12.60;;;6.80;;
38779;SDS011;29273;49.962;9.768;2022-12-13T00:50:24;13.30;;;7.40;;
38779;SDS011;29273;49.962;9.768;2022-12-13T00:52:49;11.17;;;6.70;;
38779;SDS011;29273;49.962;9.768;2022-12-13T00:55:15;10.87;;;6.40;;
38779;SDS011;29273;49.962;9.768;2022-12-13T00:57:41;12.65;;;7.05;;
38779;SDS011;29273;49.962;9.768;2022-12-13T01:00:06;12.30;;;7.27;;
38779;SDS011;29273;49.962;9.768;2022-12-13T01:02:32;10.95;;;6.53;;
38779;SDS011;29273;49.962;9.768;2022-12-13T01:04:58;11.60;;;6.77;;
38779;SDS011;29273;49.962;9.768;2022-12-13T01:07:23;13.13;;;7.73;;
38779;SDS011;29273;49.962;9.768;2022-12-13T01:09:49;11.68;;;7.13;;
38779;SDS011;29273;49.962;9.768;2022-12-13T01:12:15;14.00;;;7.53;;
38779;SDS011;29273;49.962;9.768;2022-12-13T01:14:41;17.73;;;7.77;;
38779;SDS011;29273;49.962;9.768;2022-12-13T01:17:07;12.90;;;7.80;;
38779;SDS011;29273;49.962;9.768;2022-12-13T01:19:33;9.73;;;6.45;;
38779;SDS011;29273;49.962;9.768;2022-12-13T01:22:00;12.35;;;7.63;;
38779;SDS011;29273;49.962;9.768;2022-12-13T01:24:28;11.63;;;7.07;;
38779;SDS011;29273;49.962;9.768;2022-12-13T01:26:55;10.97;;;6.73;;
38779;SDS011;29273;49.962;9.768;2022-12-13T01:29:21;12.27;;;7.32;;
38779;SDS011;29273;49.962;9.768;2022-12-13T01:31:47;12.15;;;7.35;;
38779;SDS011;29273;49.962;9.768;2022-12-13T01:34:14;12.50;;;7.35;;
38779;SDS011;29273;49.962;9.768;2022-12-13T01:36:43;12.68;;;7.15;;
38779;SDS011;29273;49.962;9.768;2022-12-13T01:39:11;10.00;;;6.37;;
38779;SDS011;29273;49.962;9.768;2022-12-13T01:41:38;11.90;;;7.03;;
38779;SDS011;29273;49.962;9.768;2022-12-13T01:44:56;10.43;;;6.38;;
38779;SDS011;29273;49.962;9.768;2022-12-13T01:47:08;9.50;;;6.32;;
38779;SDS011;29273;49.962;9.768;2022-12-13T01:49:34;10.95;;;6.20;;
38779;SDS011;29273;49.962;9.768;2022-12-13T01:52:01;10.20;;;6.13;;
38779;SDS011;29273;49.962;9.768;2022-12-13T01:54:31;10.50;;;6.25;;
38779;SDS011;29273;49.962;9.768;2022-12-13T01:57:00;9.80;;;6.28;;
38779;SDS011;29273;49.962;9.768;2022-12-13T01:59:30;10.93;;;6.10;;
38779;SDS011;29273;49.962;9.768;2022-12-13T02:01:57;11.13;;;6.45;;
38779;SDS011;29273;49.962;9.768;2022-12-13T02:04:25;11.73;;;6.57;;
38779;SDS011;29273;49.962;9.768;2022-12-13T02:06:54;11.65;;;6.75;;
38779;SDS011;29273;49.962;9.768;2022-12-13T02:09:21;12.30;;;6.57;;
38779;SDS011;29273;49.962;9.768;2022-12-13T02:11:47;8.93;;;5.70;;
38779;SDS011;29273;49.962;9.768;2022-12-13T02:14:15;10.93;;;6.30;;
38779;SDS011;29273;49.962;9.768;2022-12-13T02:19:21;11.00;;;6.90;;
38779;SDS011;29273;49.962;9.768;2022-12-13T02:22:41;10.30;;;5.70;;
38779;SDS011;29273;49.962;9.768;2022-12-13T02:25:45;8.18;;;5.75;;
38779;SDS011;29273;49.962;9.768;2022-12-13T02:33:49;9.90;;;5.77;;
38779;SDS011;29273;49.962;9.768;2022-12-13T02:38:57;9.13;;;5.20;;
38779;SDS011;29273;49.962;9.768;2022-12-13T02:41:32;10.43;;;6.07;;
38779;SDS011;29273;49.962;9.768;2022-12-13T02:44:11;9.73;;;6.03;;
38779;SDS011;29273;49.962;9.768;2022-12-13T02:46:45;10.23;;;6.10;;
38779;SDS011;29273;49.962;9.768;2022-12-13T02:49:17;11.33;;;6.13;;
38779;SDS011;29273;49.962;9.768;2022-12-13T02:51:44;12.33;;;6.20;;
38779;SDS011;29273;49.962;9.768;2022-12-13T02:54:12;12.10;;;6.43;;
38779;SDS011;29273;49.962;9.768;2022-12-13T02:56:37;11.87;;;6.60;;
38779;SDS011;29273;49.962;9.768;2022-12-13T02:59:04;12.45;;;6.55;;
38779;SDS011;29273;49.962;9.768;2022-12-13T03:01:53;10.37;;;6.27;;
38779;SDS011;29273;49.962;9.768;2022-12-13T03:07:43;9.50;;;5.53;;
38779;SDS011;29273;49.962;9.768;2022-12-13T03:10:16;10.18;;;5.57;;
38779;SDS011;29273;49.962;9.768;2022-12-13T03:12:52;13.00;;;6.53;;
38779;SDS011;29273;49.962;9.768;2022-12-13T03:18:22;9.50;;;6.20;;
38779;SDS011;29273;49.962;9.768;2022-12-13T03:21:03;11.47;;;6.57;;
38779;SDS011;29273;49.962;9.768;2022-12-13T03:23:30;10.87;;;5.53;;
38779;SDS011;29273;49.962;9.768;2022-12-13T03:26:38;10.87;;;6.13;;
38779;SDS011;29273;49.962;9.768;2022-12-13T03:28:46;11.30;;;6.07;;
38779;SDS011;29273;49.962;9.768;2022-12-13T03:31:12;10.40;;;5.47;;
38779;SDS011;29273;49.962;9.768;2022-12-13T03:33:38;11.27;;;6.77;;
38779;SDS011;29273;49.962;9.768;2022-12-13T03:36:03;10.30;;;5.90;;
38779;SDS011;29273;49.962;9.768;2022-12-13T03:38:30;9.80;;;6.17;;
38779;SDS011;29273;49.962;9.768;2022-12-13T03:40:58;9.53;;;5.37;;
38779;SDS011;29273;49.962;9.768;2022-12-13T03:43:26;9.93;;;6.33;;
38779;SDS011;29273;49.962;9.768;2022-12-13T03:45:53;10.37;;;6.53;;
38779;SDS011;29273;49.962;9.768;2022-12-13T03:48:19;12.03;;;6.43;;
38779;SDS011;29273;49.962;9.768;2022-12-13T03:50:45;9.93;;;5.93;;
38779;SDS011;29273;49.962;9.768;2022-12-13T03:53:11;11.60;;;6.43;;
38779;SDS011;29273;49.962;9.768;2022-12-13T03:55:37;10.60;;;6.00;;
38779;SDS011;29273;49.962;9.768;2022-12-13T03:58:02;10.77;;;6.20;;
38779;SDS011;29273;49.962;9.768;2022-12-13T04:00:28;10.27;;;5.90;;
38779;SDS011;29273;49.962;9.768;2022-12-13T04:02:54;10.30;;;5.80;;
38779;SDS011;29273;49.962;9.768;2022-12-13T04:05:19;9.07;;;5.50;;
38779;SDS011;29273;49.962;9.768;2022-12-13T04:07:45;9.77;;;5.40;;
38779;SDS011;29273;49.962;9.768;2022-12-13T04:10:10;10.80;;;6.27;;
38779;SDS011;29273;49.962;9.768;2022-12-13T04:12:36;11.97;;;6.03;;
38779;SDS011;29273;49.962;9.768;2022-12-13T04:15:20;9.60;;;5.90;;
38779;SDS011;29273;49.962;9.768;2022-12-13T04:17:45;9.50;;;5.87;;
38779;SDS011;29273;49.962;9.768;2022-12-13T04:20:11;10.80;;;6.30;;
38779;SDS011;29273;49.962;9.768;2022-12-13T04:22:37;10.93;;;5.83;;
38779;SDS011;29273;49.962;9.768;2022-12-13T04:25:03;10.47;;;5.97;;
38779;SDS011;29273;49.962;9.768;2022-12-13T04:27:29;8.13;;;5.60;;
38779;SDS011;29273;49.962;9.768;2022-12-13T04:29:54;8.77;;;5.97;;
38779;SDS011;29273;49.962;9.768;2022-12-13T04:32:20;10.83;;;6.23;;
38779;SDS011;29273;49.962;9.768;2022-12-13T04:34:46;11.27;;;6.53;;
38779;SDS011;29273;49.962;9.768;2022-12-13T04:37:11;9.77;;;6.03;;
38779;SDS011;29273;49.962;9.768;2022-12-13T04:39:37;9.77;;;5.87;;
38779;SDS011;29273;49.962;9.768;2022-12-13T04:42:02;9.43;;;5.67;;
38779;SDS011;29273;49.962;9.768;2022-12-13T04:44:29;8.97;;;5.67;;
38779;SDS011;29273;49.962;9.768;2022-12-13T04:46:55;10.40;;;6.10;;
38779;SDS011;29273;49.962;9.768;2022-12-13T04:49:21;10.83;;;6.03;;
38779;SDS011;29273;49.962;9.768;2022-12-13T04:51:47;9.80;;;5.97;;
38779;SDS011;29273;49.962;9.768;2022-12-13T04:54:12;12.23;;;6.63;;
38779;SDS011;29273;49.962;9.768;2022-12-13T04:56:38;9.77;;;6.00;;
38779;SDS011;29273;49.962;9.768;2022-12-13T04:59:03;11.23;;;6.20;;
38779;SDS011;29273;49.962;9.768;2022-12-13T05:01:29;8.20;;;5.43;;
38779;SDS011;29273;49.962;9.768;2022-12-13T05:03:54;9.57;;;6.03;;
38779;SDS011;29273;49.962;9.768;2022-12-13T05:06:20;10.00;;;6.13;;
38779;SDS011;29273;49.962;9.768;2022-12-13T05:08:46;9.17;;;5.77;;
38779;SDS011;29273;49.962;9.768;2022-12-13T05:11:12;10.63;;;6.17;;
38779;SDS011;29273;49.962;9.768;2022-12-13T05:13:37;10.77;;;6.23;;
38779;SDS011;29273;49.962;9.768;2022-12-13T05:16:04;8.70;;;5.43;;
38779;SDS011;29273;49.962;9.768;2022-12-13T05:18:31;12.37;;;6.13;;
38779;SDS011;29273;49.962;9.768;2022-12-13T05:21:04;10.80;;;6.27;;
38779;SDS011;29273;49.962;9.768;2022-12-13T05:23:32;12.17;;;6.07;;
38779;SDS011;29273;49.962;9.768;2022-12-13T05:25:58;9.33;;;5.80;;
38779;SDS011;29273;49.962;9.768;2022-12-13T05:28:24;10.63;;;5.93;;
38779;SDS011;29273;49.962;9.768;2022-12-13T05:30:56;9.00;;;5.63;;
38779;SDS011;29273;49.962;9.768;2022-12-13T05:33:23;11.77;;;5.97;;
38779;SDS011;29273;49.962;9.768;2022-12-13T05:35:49;10.27;;;6.07;;
38779;SDS011;29273;49.962;9.768;2022-12-13T05:38:15;11.20;;;6.23;;
38779;SDS011;29273;49.962;9.768;2022-12-13T05:40:41;13.47;;;6.50;;
38779;SDS011;29273;49.962;9.768;2022-12-13T05:43:08;11.20;;;6.17;;
38779;SDS011;29273;49.962;9.768;2022-12-13T05:45:35;11.63;;;5.87;;
38779;SDS011;29273;49.962;9.768;2022-12-13T05:48:01;10.77;;;6.33;;
38779;SDS011;29273;49.962;9.768;2022-12-13T05:50:26;9.97;;;6.10;;
38779;SDS011;29273;49.962;9.768;2022-12-13T05:52:52;8.37;;;5.73;;
38779;SDS011;29273;49.962;9.768;2022-12-13T05:55:17;10.53;;;5.90;;
38779;SDS011;29273;49.962;9.768;2022-12-13T05:57:44;10.43;;;6.17;;
38779;SDS011;29273;49.962;9.768;2022-12-13T06:00:09;9.97;;;5.93;;
38779;SDS011;29273;49.962;9.768;2022-12-13T06:02:39;10.20;;;5.87;;
38779;SDS011;29273;49.962;9.768;2022-12-13T06:05:06;11.27;;;6.43;;
38779;SDS011;29273;49.962;9.768;2022-12-13T06:07:32;10.97;;;6.40;;
38779;SDS011;29273;49.962;9.768;2022-12-13T06:09:57;9.83;;;5.93;;
38779;SDS011;29273;49.962;9.768;2022-12-13T06:12:23;10.50;;;5.93;;
38779;SDS011;29273;49.962;9.768;2022-12-13T06:14:49;9.13;;;5.37;;
38779;SDS011;29273;49.962;9.768;2022-12-13T06:17:14;11.30;;;6.90;;
38779;SDS011;29273;49.962;9.768;2022-12-13T06:19:40;9.67;;;6.43;;
38779;SDS011;29273;49.962;9.768;2022-12-13T06:22:05;11.70;;;6.10;;
38779;SDS011;29273;49.962;9.768;2022-12-13T06:24:31;12.37;;;6.13;;
38779;SDS011;29273;49.962;9.768;2022-12-13T06:26:56;10.00;;;6.03;;
38779;SDS011;29273;49.962;9.768;2022-12-13T06:29:24;11.07;;;5.97;;
38779;SDS011;29273;49.962;9.768;2022-12-13T06:31:57;10.17;;;6.27;;
38779;SDS011;29273;49.962;9.768;2022-12-13T06:34:24;10.53;;;6.30;;
38779;SDS011;29273;49.962;9.768;2022-12-13T06:36:50;13.17;;;7.30;;
38779;SDS011;29273;49.962;9.768;2022-12-13T06:39:16;10.67;;;6.27;;
38779;SDS011;29273;49.962;9.768;2022-12-13T06:41:41;10.73;;;5.80;;
38779;SDS011;29273;49.962;9.768;2022-12-13T06:44:07;11.70;;;6.87;;
38779;SDS011;29273;49.962;9.768;2022-12-13T06:46:33;10.68;;;6.93;;
38779;SDS011;29273;49.962;9.768;2022-12-13T06:48:58;12.97;;;7.27;;
38779;SDS011;29273;49.962;9.768;2022-12-13T06:51:24;14.63;;;7.33;;
38779;SDS011;29273;49.962;9.768;2022-12-13T06:53:50;14.33;;;7.97;;
38779;SDS011;29273;49.962;9.768;2022-12-13T06:56:15;15.53;;;8.70;;
38779;SDS011;29273;49.962;9.768;2022-12-13T06:58:41;17.07;;;9.37;;
38779;SDS011;29273;49.962;9.768;2022-12-13T07:01:08;17.20;;;9.18;;
38779;SDS011;29273;49.962;9.768;2022-12-13T07:03:35;14.13;;;8.30;;
38779;SDS011;29273;49.962;9.768;2022-12-13T07:06:05;14.23;;;8.20;;
38779;SDS011;29273;49.962;9.768;2022-12-13T07:08:32;12.98;;;8.25;;
38779;SDS011;29273;49.962;9.768;2022-12-13T07:10:58;15.67;;;7.80;;
38779;SDS011;29273;49.962;9.768;2022-12-13T07:13:24;13.63;;;7.83;;
38779;SDS011;29273;49.962;9.768;2022-12-13T07:15:49;14.70;;;8.00;;
38779;SDS011;29273;49.962;9.768;2022-12-13T07:18:15;12.73;;;7.17;;
38779;SDS011;29273;49.962;9.768;2022-12-13T07:20:42;13.70;;;7.13;;
38779;SDS011;29273;49.962;9.768;2022-12-13T07:23:08;12.93;;;7.27;;
38779;SDS011;29273;49.962;9.768;2022-12-13T07:25:34;11.43;;;7.00;;
38779;SDS011;29273;49.962;9.768;2022-12-13T07:28:00;11.13;;;6.97;;
38779;SDS011;29273;49.962;9.768;2022-12-13T07:30:29;13.50;;;8.20;;
38779;SDS011;29273;49.962;9.768;2022-12-13T07:32:59;12.80;;;7.00;;
38779;SDS011;29273;49.962;9.768;2022-12-13T07:35:26;12.40;;;7.33;;
38779;SDS011;29273;49.962;9.768;2022-12-13T07:37:51;12.97;;;7.57;;
38779;SDS011;29273;49.962;9.768;2022-12-13T07:40:17;11.43;;;7.03;;
38779;SDS011;29273;49.962;9.768;2022-12-13T07:42:48;14.03;;;7.40;;
38779;SDS011;29273;49.962;9.768;2022-12-13T07:45:17;10.60;;;6.47;;
38779;SDS011;29273;49.962;9.768;2022-12-13T07:47:43;11.00;;;6.23;;
38779;SDS011;29273;49.962;9.768;2022-12-13T07:50:09;12.03;;;6.70;;
38779;SDS011;29273;49.962;9.768;2022-12-13T07:52:35;11.67;;;6.77;;
38779;SDS011;29273;49.962;9.768;2022-12-13T07:55:01;13.17;;;7.30;;
38779;SDS011;29273;49.962;9.768;2022-12-13T07:57:28;11.33;;;6.73;;
38779;SDS011;29273;49.962;9.768;2022-12-13T07:59:53;12.77;;;7.13;;
38779;SDS011;29273;49.962;9.768;2022-12-13T08:02:19;11.83;;;7.37;;
38779;SDS011;29273;49.962;9.768;2022-12-13T08:04:44;11.60;;;6.57;;
38779;SDS011;29273;49.962;9.768;2022-12-13T08:07:10;10.73;;;6.50;;
38779;SDS011;29273;49.962;9.768;2022-12-13T08:09:35;10.77;;;6.67;;
38779;SDS011;29273;49.962;9.768;2022-12-13T08:12:01;10.40;;;6.20;;
38779;SDS011;29273;49.962;9.768;2022-12-13T08:14:27;11.03;;;7.17;;
38779;SDS011;29273;49.962;9.768;2022-12-13T08:16:53;10.63;;;6.80;;
38779;SDS011;29273;49.962;9.768;2022-12-13T08:19:18;11.17;;;6.70;;
38779;SDS011;29273;49.962;9.768;2022-12-13T08:21:44;11.97;;;6.97;;
38779;SDS011;29273;49.962;9.768;2022-12-13T08:24:10;13.90;;;7.37;;
38779;SDS011;29273;49.962;9.768;2022-12-13T08:26:35;12.73;;;7.27;;
38779;SDS011;29273;49.962;9.768;2022-12-13T08:29:01;10.47;;;6.70;;
38779;SDS011;29273;49.962;9.768;2022-12-13T08:31:28;12.10;;;6.95;;
38779;SDS011;29273;49.962;9.768;2022-12-13T08:33:54;12.10;;;7.57;;
38779;SDS011;29273;49.962;9.768;2022-12-13T08:36:19;12.70;;;7.30;;
38779;SDS011;29273;49.962;9.768;2022-12-13T08:38:48;11.20;;;6.97;;
38779;SDS011;29273;49.962;9.768;2022-12-13T08:41:17;11.80;;;6.90;;
38779;SDS011;29273;49.962;9.768;2022-12-13T08:43:43;10.63;;;6.40;;
38779;SDS011;29273;49.962;9.768;2022-12-13T08:46:08;9.23;;;5.80;;
38779;SDS011;29273;49.962;9.768;2022-12-13T08:48:34;9.87;;;6.37;;
38779;SDS011;29273;49.962;9.768;2022-12-13T08:51:01;11.50;;;5.90;;
38779;SDS011;29273;49.962;9.768;2022-12-13T08:53:28;11.97;;;6.33;;
38779;SDS011;29273;49.962;9.768;2022-12-13T08:55:58;9.30;;;6.43;;
38779;SDS011;29273;49.962;9.768;2022-12-13T08:58:28;12.17;;;6.70;;
38779;SDS011;29273;49.962;9.768;2022-12-13T09:00:53;11.33;;;6.63;;
38779;SDS011;29273;49.962;9.768;2022-12-13T09:03:19;11.47;;;7.17;;
38779;SDS011;29273;49.962;9.768;2022-12-13T09:05:45;10.00;;;6.23;;
38779;SDS011;29273;49.962;9.768;2022-12-13T09:08:10;10.63;;;6.27;;
38779;SDS011;29273;49.962;9.768;2022-12-13T09:10:36;10.97;;;6.90;;
38779;SDS011;29273;49.962;9.768;2022-12-13T09:13:02;11.70;;;6.80;;
38779;SDS011;29273;49.962;9.768;2022-12-13T09:15:28;9.87;;;6.67;;
38779;SDS011;29273;49.962;9.768;2022-12-13T09:17:55;11.82;;;7.28;;
38779;SDS011;29273;49.962;9.768;2022-12-13T09:20:20;11.55;;;6.78;;
38779;SDS011;29273;49.962;9.768;2022-12-13T09:22:46;10.15;;;6.75;;
38779;SDS011;29273;49.962;9.768;2022-12-13T09:25:13;12.30;;;7.30;;
38779;SDS011;29273;49.962;9.768;2022-12-13T09:27:38;12.38;;;7.25;;
38779;SDS011;29273;49.962;9.768;2022-12-13T09:30:04;10.88;;;6.75;;
38779;SDS011;29273;49.962;9.768;2022-12-13T09:32:32;11.67;;;6.30;;
38779;SDS011;29273;49.962;9.768;2022-12-13T09:34:57;11.98;;;6.55;;
38779;SDS011;29273;49.962;9.768;2022-12-13T09:37:23;9.75;;;6.43;;
38779;SDS011;29273;49.962;9.768;2022-12-13T09:39:48;10.02;;;6.28;;
38779;SDS011;29273;49.962;9.768;2022-12-13T09:42:16;10.90;;;6.80;;
38779;SDS011;29273;49.962;9.768;2022-12-13T09:44:57;10.30;;;6.38;;
38779;SDS011;29273;49.962;9.768;2022-12-13T09:47:33;11.20;;;6.20;;
38779;SDS011;29273;49.962;9.768;2022-12-13T09:50:05;9.65;;;5.97;;
38779;SDS011;29273;49.962;9.768;2022-12-13T09:52:36;9.38;;;5.88;;
38779;SDS011;29273;49.962;9.768;2022-12-13T09:55:13;8.93;;;5.93;;
38779;SDS011;29273;49.962;9.768;2022-12-13T09:57:43;9.50;;;5.50;;
38779;SDS011;29273;49.962;9.768;2022-12-13T10:00:13;8.85;;;5.47;;
38779;SDS011;29273;49.962;9.768;2022-12-13T10:02:42;8.40;;;5.65;;
38779;SDS011;29273;49.962;9.768;2022-12-13T10:05:16;10.23;;;6.07;;
38779;SDS011;29273;49.962;9.768;2022-12-13T10:07:45;10.77;;;6.63;;
38779;SDS011;29273;49.962;9.768;2022-12-13T10:10:12;10.73;;;6.28;;
38779;SDS011;29273;49.962;9.768;2022-12-13T10:12:38;10.80;;;6.43;;
38779;SDS011;29273;49.962;9.768;2022-12-13T10:15:07;9.25;;;6.00;;
38779;SDS011;29273;49.962;9.768;2022-12-13T10:17:37;10.25;;;6.35;;
38779;SDS011;29273;49.962;9.768;2022-12-13T10:20:05;9.95;;;5.88;;
38779;SDS011;29273;49.962;9.768;2022-12-13T10:22:32;10.48;;;6.43;;
38779;SDS011;29273;49.962;9.768;2022-12-13T10:24:58;9.27;;;6.53;;
38779;SDS011;29273;49.962;9.768;2022-12-13T10:30:07;8.98;;;6.03;;
38779;SDS011;29273;49.962;9.768;2022-12-13T10:32:54;9.20;;;6.27;;
38779;SDS011;29273;49.962;9.768;2022-12-13T10:35:29;9.68;;;6.05;;
38779;SDS011;29273;49.962;9.768;2022-12-13T10:40:34;7.90;;;5.22;;
38779;SDS011;29273;49.962;9.768;2022-12-13T10:43:04;9.73;;;5.78;;
38779;SDS011;29273;49.962;9.768;2022-12-13T10:45:31;9.52;;;5.25;;
38779;SDS011;29273;49.962;9.768;2022-12-13T10:47:57;9.68;;;6.10;;
38779;SDS011;29273;49.962;9.768;2022-12-13T10:50:26;9.27;;;5.75;;
38779;SDS011;29273;49.962;9.768;2022-12-13T10:52:53;8.90;;;5.68;;
38779;SDS011;29273;49.962;9.768;2022-12-13T10:55:30;8.98;;;5.22;;
38779;SDS011;29273;49.962;9.768;2022-12-13T10:57:59;8.57;;;5.40;;
38779;SDS011;29273;49.962;9.768;2022-12-13T11:00:33;8.63;;;5.20;;
38779;SDS011;29273;49.962;9.768;2022-12-13T11:02:59;8.77;;;5.63;;
38779;SDS011;29273;49.962;9.768;2022-12-13T11:05:25;7.75;;;4.93;;
38779;SDS011;29273;49.962;9.768;2022-12-13T11:07:51;8.90;;;5.38;;
38779;SDS011;29273;49.962;9.768;2022-12-13T11:12:45;7.82;;;5.32;;
38779;SDS011;29273;49.962;9.768;2022-12-13T11:15:15;8.93;;;5.40;;
38779;SDS011;29273;49.962;9.768;2022-12-13T11:17:48;7.95;;;5.55;;
38779;SDS011;29273;49.962;9.768;2022-12-13T11:23:03;7.38;;;4.65;;
38779;SDS011;29273;49.962;9.768;2022-12-13T11:25:41;8.95;;;5.00;;
38779;SDS011;29273;49.962;9.768;2022-12-13T11:28:19;9.75;;;5.63;;
38779;SDS011;29273;49.962;9.768;2022-12-13T11:31:25;8.05;;;5.20;;
38779;SDS011;29273;49.962;9.768;2022-12-13T11:33:58;6.72;;;4.63;;
38779;SDS011;29273;49.962;9.768;2022-12-13T11:36:46;8.45;;;5.07;;
38779;SDS011;29273;49.962;9.768;2022-12-13T11:39:36;7.03;;;4.78;;
38779;SDS011;29273;49.962;9.768;2022-12-13T11:47:46;6.80;;;5.15;;
38779;SDS011;29273;49.962;9.768;2022-12-13T11:50:16;7.65;;;4.63;;
38779;SDS011;29273;49.962;9.768;2022-12-13T11:52:50;7.05;;;4.78;;
38779;SDS011;29273;49.962;9.768;2022-12-13T11:56:03;6.50;;;4.57;;
38779;SDS011;29273;49.962;9.768;2022-12-13T11:58:11;6.00;;;4.50;;
38779;SDS011;29273;49.962;9.768;2022-12-13T12:00:50;7.22;;;4.70;;
38779;SDS011;29273;49.962;9.768;2022-12-13T12:03:25;6.88;;;4.80;;
38779;SDS011;29273;49.962;9.768;2022-12-13T12:06:02;6.35;;;4.45;;
38779;SDS011;29273;49.962;9.768;2022-12-13T12:14:15;6.45;;;4.32;;
38779;SDS011;29273;49.962;9.768;2022-12-13T12:16:51;6.13;;;4.18;;
38779;SDS011;29273;49.962;9.768;2022-12-13T12:19:19;6.25;;;4.25;;
38779;SDS011;29273;49.962;9.768;2022-12-13T12:56:06;5.95;;;4.43;;
38779;SDS011;29273;49.962;9.768;2022-12-13T13:01:57;4.72;;;3.83;;
38779;SDS011;29273;49.962;9.768;2022-12-13T13:07:19;5.88;;;3.92;;
38779;SDS011;29273;49.962;9.768;2022-12-13T13:09:53;6.75;;;4.05;;
38779;SDS011;29273;49.962;9.768;2022-12-13T13:12:21;5.15;;;3.60;;
38779;SDS011;29273;49.962;9.768;2022-12-13T13:14:48;6.70;;;4.00;;
38779;SDS011;29273;49.962;9.768;2022-12-13T13:19:46;4.78;;;3.63;;
38779;SDS011;29273;49.962;9.768;2022-12-13T13:22:32;5.95;;;3.55;;
38779;SDS011;29273;49.962;9.768;2022-12-13T13:27:41;5.65;;;3.55;;
38779;SDS011;29273;49.962;9.768;2022-12-13T13:32:41;5.43;;;3.63;;
38779;SDS011;29273;49.962;9.768;2022-12-13T13:37:55;4.25;;;3.08;;
38779;SDS011;29273;49.962;9.768;2022-12-13T13:43:45;4.57;;;3.45;;
38779;SDS011;29273;49.962;9.768;2022-12-13T13:45:56;5.32;;;3.55;;
38779;SDS011;29273;49.962;9.768;2022-12-13T13:59:30;3.70;;;2.88;;
38779;SDS011;29273;49.962;9.768;2022-12-13T14:05:45;4.57;;;3.25;;
38779;SDS011;29273;49.962;9.768;2022-12-13T14:10:28;4.40;;;3.35;;
38779;SDS011;29273;49.962;9.768;2022-12-13T14:27:12;5.45;;;3.45;;
38779;SDS011;29273;49.962;9.768;2022-12-13T14:29:41;4.45;;;3.38;;
38779;SDS011;29273;49.962;9.768;2022-12-13T14:32:09;4.80;;;3.40;;
38779;SDS011;29273;49.962;9.768;2022-12-13T14:34:43;4.80;;;2.95;;
38779;SDS011;29273;49.962;9.768;2022-12-13T14:37:29;4.47;;;3.28;;
38779;SDS011;29273;49.962;9.768;2022-12-13T14:39:56;4.28;;;3.33;;
38779;SDS011;29273;49.962;9.768;2022-12-13T14:42:24;4.78;;;3.70;;
38779;SDS011;29273;49.962;9.768;2022-12-13T14:44:54;5.38;;;3.65;;
38779;SDS011;29273;49.962;9.768;2022-12-13T14:47:38;4.90;;;3.50;;
38779;SDS011;29273;49.962;9.768;2022-12-13T14:50:05;5.35;;;3.85;;
38779;SDS011;29273;49.962;9.768;2022-12-13T14:52:32;5.22;;;3.67;;
38779;SDS011;29273;49.962;9.768;2022-12-13T14:55:01;4.63;;;3.42;;
38779;SDS011;29273;49.962;9.768;2022-12-13T14:57:31;4.70;;;3.20;;
38779;SDS011;29273;49.962;9.768;2022-12-13T14:59:59;4.88;;;3.42;;
38779;SDS011;29273;49.962;9.768;2022-12-13T15:02:27;5.00;;;3.58;;
38779;SDS011;29273;49.962;9.768;2022-12-13T15:04:55;4.82;;;3.78;;
38779;SDS011;29273;49.962;9.768;2022-12-13T15:09:58;4.30;;;3.22;;
38779;SDS011;29273;49.962;9.768;2022-12-13T15:12:27;5.18;;;3.25;;
38779;SDS011;29273;49.962;9.768;2022-12-13T15:14:58;4.55;;;3.25;;
38779;SDS011;29273;49.962;9.768;2022-12-13T15:20:06;4.55;;;3.28;;
38779;SDS011;29273;49.962;9.768;2022-12-13T15:23:04;5.72;;;3.83;;
38779;SDS011;29273;49.962;9.768;2022-12-13T15:25:37;4.95;;;3.30;;
38779;SDS011;29273;49.962;9.768;2022-12-13T15:28:04;5.63;;;4.10;;
38779;SDS011;29273;49.962;9.768;2022-12-13T15:30:32;4.95;;;3.83;;
38779;SDS011;29273;49.962;9.768;2022-12-13T15:33:05;7.68;;;4.13;;
38779;SDS011;29273;49.962;9.768;2022-12-13T15:35:41;5.85;;;3.90;;
38779;SDS011;29273;49.962;9.768;2022-12-13T15:38:10;6.00;;;3.88;;
38779;SDS011;29273;49.962;9.768;2022-12-13T15:40:43;5.93;;;4.35;;
38779;SDS011;29273;49.962;9.768;2022-12-13T15:43:14;7.45;;;4.40;;
38779;SDS011;29273;49.962;9.768;2022-12-13T15:45:43;6.07;;;4.50;;
38779;SDS011;29273;49.962;9.768;2022-12-13T15:48:31;7.05;;;4.68;;
38779;SDS011;29273;49.962;9.768;2022-12-13T15:51:03;6.93;;;4.55;;
38779;SDS011;29273;49.962;9.768;2022-12-13T15:53:30;7.40;;;5.13;;
38779;SDS011;29273;49.962;9.768;2022-12-13T15:55:56;7.97;;;4.60;;
38779;SDS011;29273;49.962;9.768;2022-12-13T15:58:26;8.80;;;5.10;;
38779;SDS011;29273;49.962;9.768;2022-12-13T16:00:56;7.05;;;4.45;;
38779;SDS011;29273;49.962;9.768;2022-12-13T16:03:23;6.75;;;4.45;;
38779;SDS011;29273;49.962;9.768;2022-12-13T16:05:51;7.70;;;4.63;;
38779;SDS011;29273;49.962;9.768;2022-12-13T16:08:31;7.00;;;5.05;;
38779;SDS011;29273;49.962;9.768;2022-12-13T16:11:02;7.10;;;4.70;;
38779;SDS011;29273;49.962;9.768;2022-12-13T16:13:29;8.48;;;5.13;;
38779;SDS011;29273;49.962;9.768;2022-12-13T16:15:58;7.20;;;4.78;;
38779;SDS011;29273;49.962;9.768;2022-12-13T16:18:32;9.52;;;6.10;;
38779;SDS011;29273;49.962;9.768;2022-12-13T16:21:07;7.43;;;5.68;;
38779;SDS011;29273;49.962;9.768;2022-12-13T16:23:33;7.07;;;4.80;;
38779;SDS011;29273;49.962;9.768;2022-12-13T16:25:58;9.55;;;5.97;;
38779;SDS011;29273;49.962;9.768;2022-12-13T16:28:24;11.65;;;6.80;;
38779;SDS011;29273;49.962;9.768;2022-12-13T16:30:52;9.10;;;6.53;;
38779;SDS011;29273;49.962;9.768;2022-12-13T16:33:22;10.88;;;7.35;;
38779;SDS011;29273;49.962;9.768;2022-12-13T16:35:49;11.52;;;7.78;;
38779;SDS011;29273;49.962;9.768;2022-12-13T16:38:15;15.02;;;8.07;;
38779;SDS011;29273;49.962;9.768;2022-12-13T16:40:42;12.25;;;8.32;;
38779;SDS011;29273;49.962;9.768;2022-12-13T16:43:27;12.75;;;8.18;;
38779;SDS011;29273;49.962;9.768;2022-12-13T16:45:57;13.75;;;7.80;;
38779;SDS011;29273;49.962;9.768;2022-12-13T16:48:23;12.82;;;8.07;;
38779;SDS011;29273;49.962;9.768;2022-12-13T16:50:49;10.25;;;6.65;;
38779;SDS011;29273;49.962;9.768;2022-12-13T16:53:16;10.45;;;6.88;;
38779;SDS011;29273;49.962;9.768;2022-12-13T16:55:42;10.85;;;6.13;;
38779;SDS011;29273;49.962;9.768;2022-12-13T16:58:12;11.25;;;6.55;;
38779;SDS011;29273;49.962;9.768;2022-12-13T17:00:42;9.10;;;5.88;;